createdAt,value
2023-02-21T00:02:40.775Z,1.73
2023-02-21T00:05:27.752Z,1.47
2023-02-21T00:08:14.711Z,1.80
2023-02-21T00:11:01.481Z,1.57
2023-02-21T00:13:48.288Z,1.40
2023-02-21T00:16:38.203Z,1.63
2023-02-21T00:19:24.806Z,1.90
2023-02-21T00:22:11.662Z,1.63
2023-02-21T00:24:58.296Z,2.60
2023-02-21T00:27:45.352Z,2.07
2023-02-21T00:30:34.358Z,2.90
2023-02-21T00:33:21.099Z,2.63
2023-02-21T00:36:08.102Z,2.57
2023-02-21T00:38:57.381Z,2.10
2023-02-21T00:41:44.307Z,2.20
2023-02-21T00:44:31.095Z,1.70
2023-02-21T00:47:18.015Z,1.70
2023-02-21T00:50:04.896Z,1.90
2023-02-21T00:52:51.637Z,1.20
2023-02-21T00:55:39.359Z,2.07
2023-02-21T00:58:26.167Z,2.13
2023-02-21T01:01:13.194Z,2.03
2023-02-21T01:04:00.326Z,1.80
2023-02-21T01:06:47.075Z,1.80
2023-02-21T01:09:33.787Z,2.00
2023-02-21T01:12:20.614Z,1.70
2023-02-21T01:15:07.449Z,7.40
2023-02-21T01:17:54.318Z,5.90
2023-02-21T01:20:41.209Z,2.70
2023-02-21T01:23:27.965Z,2.67
2023-02-21T01:26:14.797Z,2.07
2023-02-21T01:29:01.602Z,1.83
2023-02-21T01:31:48.389Z,2.17
2023-02-21T01:34:36.200Z,2.60
2023-02-21T01:37:22.933Z,2.90
2023-02-21T01:40:09.742Z,3.30
2023-02-21T01:42:56.582Z,3.70
2023-02-21T01:45:43.274Z,2.70
2023-02-21T01:48:39.386Z,2.07
2023-02-21T01:51:29.804Z,2.47
2023-02-21T01:54:17.050Z,2.50
2023-02-21T01:57:03.557Z,3.13
2023-02-21T01:59:50.292Z,2.63
2023-02-21T02:03:08.610Z,3.60
2023-02-21T02:05:58.586Z,3.50
2023-02-21T02:08:48.862Z,3.23
2023-02-21T02:11:35.708Z,4.20
2023-02-21T02:14:25.801Z,5.90
2023-02-21T02:17:10.568Z,3.37
2023-02-21T02:19:42.247Z,3.80
2023-02-21T02:22:30.751Z,3.50
2023-02-21T02:25:14.052Z,3.40
2023-02-21T02:28:24.727Z,3.10
2023-02-21T02:31:26.198Z,2.80
2023-02-21T02:34:19.112Z,3.43
2023-02-21T02:36:52.640Z,3.77
2023-02-21T02:39:34.316Z,3.23
2023-02-21T02:42:12.519Z,2.57
2023-02-21T02:44:43.519Z,2.97
2023-02-21T02:47:34.366Z,2.80
2023-02-21T02:50:04.613Z,2.50
2023-02-21T02:52:32.997Z,2.30
2023-02-21T02:55:04.621Z,3.80
2023-02-21T02:57:41.381Z,2.83
2023-02-21T03:00:11.611Z,3.20
2023-02-21T03:03:14.089Z,2.67
2023-02-21T03:06:33.526Z,2.10
2023-02-21T03:09:27.853Z,13.10
2023-02-21T03:12:06.393Z,3.40
2023-02-21T03:14:58.389Z,3.73
2023-02-21T03:17:29.826Z,2.40
2023-02-21T03:20:00.313Z,4.37
2023-02-21T03:22:31.588Z,3.23
2023-02-21T03:25:05.215Z,2.70
2023-02-21T03:27:34.545Z,3.57
2023-02-21T03:30:06.134Z,2.60
2023-02-21T03:32:46.398Z,3.00
2023-02-21T03:35:15.236Z,2.40
2023-02-21T03:37:49.130Z,1.87
2023-02-21T03:40:21.424Z,2.33
2023-02-21T03:42:50.138Z,2.00
2023-02-21T03:45:18.844Z,1.80
2023-02-21T03:47:47.223Z,1.97
2023-02-21T03:50:16.223Z,2.00
2023-02-21T03:52:44.759Z,2.10
2023-02-21T03:55:13.456Z,1.60
2023-02-21T03:57:42.046Z,1.80
2023-02-21T04:00:11.832Z,1.70
2023-02-21T04:02:40.352Z,1.70
2023-02-21T04:05:09.245Z,1.70
2023-02-21T04:07:37.692Z,1.30
2023-02-21T04:10:06.399Z,1.40
2023-02-21T04:12:34.878Z,1.60
2023-02-21T04:15:03.270Z,1.67
2023-02-21T04:17:31.749Z,1.60
2023-02-21T04:20:00.240Z,2.20
2023-02-21T04:22:28.602Z,1.80
2023-02-21T04:24:57.452Z,1.63
2023-02-21T04:27:26.216Z,1.70
2023-02-21T04:29:54.694Z,2.00
2023-02-21T04:32:23.215Z,1.70
2023-02-21T04:34:51.813Z,1.70
2023-02-21T04:37:20.573Z,1.10
2023-02-21T04:39:49.077Z,1.33
2023-02-21T04:42:17.795Z,1.40
2023-02-21T04:44:54.976Z,1.30
2023-02-21T04:47:28.141Z,1.13
2023-02-21T04:49:56.725Z,1.27
2023-02-21T04:52:25.410Z,1.20
2023-02-21T04:54:53.916Z,1.17
2023-02-21T04:57:22.346Z,1.30
2023-02-21T04:59:56.474Z,1.10
2023-02-21T05:02:24.841Z,1.30
2023-02-21T05:04:53.292Z,0.90
2023-02-21T05:07:21.864Z,0.87
2023-02-21T05:09:50.510Z,1.20
2023-02-21T05:12:19.058Z,0.97
2023-02-21T05:14:47.448Z,1.07
2023-02-21T05:17:15.841Z,1.10
2023-02-21T05:19:44.407Z,1.03
2023-02-21T05:22:12.790Z,0.97
2023-02-21T05:24:43.721Z,0.80
2023-02-21T05:27:16.476Z,1.10
2023-02-21T05:29:51.881Z,1.20
2023-02-21T05:32:24.109Z,1.20
2023-02-21T05:34:52.477Z,0.80
2023-02-21T05:37:22.138Z,0.90
2023-02-21T05:39:50.633Z,1.00
2023-02-21T05:42:19.337Z,0.90
2023-02-21T05:44:48.581Z,0.80
2023-02-21T05:47:17.054Z,0.70
2023-02-21T05:49:45.634Z,0.90
2023-02-21T05:52:16.113Z,1.00
2023-02-21T05:54:44.984Z,1.10
2023-02-21T05:57:13.392Z,1.27
2023-02-21T05:59:41.867Z,1.00
2023-02-21T06:02:10.329Z,1.60
2023-02-21T06:04:38.683Z,2.10
2023-02-21T06:07:07.115Z,1.90
2023-02-21T06:09:35.593Z,2.37
2023-02-21T06:12:04.003Z,2.00
2023-02-21T06:14:32.476Z,2.47
2023-02-21T06:17:03.528Z,1.93
2023-02-21T06:19:33.455Z,2.37
2023-02-21T06:22:02.016Z,1.70
2023-02-21T06:24:30.376Z,1.63
2023-02-21T06:26:58.771Z,1.30
2023-02-21T06:29:27.148Z,1.70
2023-02-21T06:32:02.227Z,1.47
2023-02-21T06:34:30.581Z,1.80
2023-02-21T06:36:59.051Z,1.30
2023-02-21T06:39:27.450Z,1.47
2023-02-21T06:41:55.795Z,1.37
2023-02-21T06:44:24.177Z,0.90
2023-02-21T06:46:55.590Z,1.13
2023-02-21T06:49:23.945Z,0.80
2023-02-21T06:51:52.334Z,0.73
2023-02-21T06:54:20.992Z,0.50
2023-02-21T06:56:49.397Z,1.10
2023-02-21T06:59:17.741Z,0.70
2023-02-21T07:01:46.131Z,0.90
2023-02-21T07:04:14.554Z,0.60
2023-02-21T07:06:42.901Z,0.87
2023-02-21T07:09:11.261Z,0.70
2023-02-21T07:11:39.746Z,0.63
2023-02-21T07:14:08.126Z,0.80
2023-02-21T07:16:36.561Z,0.70
2023-02-21T07:19:05.111Z,0.60
2023-02-21T07:21:33.604Z,1.40
2023-02-21T07:24:02.008Z,0.83
2023-02-21T07:26:30.413Z,1.00
2023-02-21T07:28:58.831Z,1.20
2023-02-21T07:31:28.064Z,0.93
2023-02-21T07:33:56.515Z,1.10
2023-02-21T07:36:24.978Z,1.10
2023-02-21T07:38:53.466Z,1.20
2023-02-21T07:41:21.816Z,1.33
2023-02-21T07:43:50.301Z,1.37
2023-02-21T07:46:19.218Z,1.50
2023-02-21T07:48:47.817Z,1.43
2023-02-21T07:51:16.473Z,1.60
2023-02-21T07:53:45.129Z,1.60
2023-02-21T07:56:13.618Z,1.60
2023-02-21T07:58:41.980Z,1.90
2023-02-21T08:01:11.087Z,1.67
2023-02-21T08:03:41.591Z,1.50
2023-02-21T08:06:11.550Z,1.37
2023-02-21T08:08:39.986Z,1.30
2023-02-21T08:11:08.501Z,0.87
2023-02-21T08:13:36.914Z,1.13
2023-02-21T08:16:05.424Z,0.70
2023-02-21T08:18:34.160Z,0.70
2023-02-21T08:21:02.500Z,0.60
2023-02-21T08:23:30.917Z,0.57
2023-02-21T08:25:59.314Z,0.40
2023-02-21T08:28:27.748Z,0.40
2023-02-21T08:30:56.128Z,0.63
2023-02-21T08:33:24.867Z,0.43
2023-02-21T08:35:53.245Z,0.60
2023-02-21T08:38:22.140Z,0.50
2023-02-21T08:40:52.184Z,0.53
2023-02-21T08:43:20.590Z,0.60
2023-02-21T08:45:48.988Z,0.63
2023-02-21T08:48:17.689Z,0.60
2023-02-21T08:50:46.165Z,0.60
2023-02-21T08:53:15.987Z,0.90
2023-02-21T08:55:44.559Z,1.00
2023-02-21T08:58:13.870Z,1.13
2023-02-21T09:00:42.447Z,1.03
2023-02-21T09:03:10.962Z,1.20
2023-02-21T09:05:40.418Z,1.47
2023-02-21T09:08:11.193Z,1.10
2023-02-21T09:10:48.068Z,1.30
2023-02-21T09:13:16.615Z,1.07
2023-02-21T09:15:45.304Z,1.20
2023-02-21T09:18:14.305Z,1.43
2023-02-21T09:20:43.241Z,1.47
2023-02-21T09:23:12.228Z,1.50
2023-02-21T09:25:40.591Z,2.10
2023-02-21T09:28:09.115Z,1.60
2023-02-21T09:30:37.570Z,2.00
2023-02-21T09:33:06.022Z,1.87
2023-02-21T09:35:34.473Z,1.67
2023-02-21T09:38:03.326Z,1.80
2023-02-21T09:40:40.657Z,2.90
2023-02-21T09:43:26.630Z,2.60
2023-02-21T09:46:00.097Z,2.50
2023-02-21T09:48:29.677Z,1.87
2023-02-21T09:51:06.545Z,2.63
2023-02-21T09:53:39.016Z,3.10
2023-02-21T09:56:14.542Z,2.10
2023-02-21T09:58:44.948Z,2.60
2023-02-21T10:02:20.001Z,2.30
2023-02-21T10:04:57.069Z,2.33
2023-02-21T10:07:41.610Z,2.27
2023-02-21T10:10:19.508Z,2.37
2023-02-21T10:13:05.263Z,1.93
2023-02-21T10:16:03.798Z,2.20
2023-02-21T10:19:04.477Z,1.80
2023-02-21T10:21:38.753Z,2.67
2023-02-21T10:24:24.941Z,2.10
2023-02-21T10:27:34.391Z,1.70
2023-02-21T10:30:12.075Z,2.20
2023-02-21T10:32:40.530Z,1.50
2023-02-21T10:35:09.180Z,3.40
2023-02-21T10:37:59.059Z,1.30
2023-02-21T10:40:33.367Z,1.33
2023-02-21T10:43:19.717Z,1.80
2023-02-21T10:46:03.291Z,1.20
2023-02-21T10:48:38.241Z,1.67
2023-02-21T10:51:18.581Z,1.50
2023-02-21T10:53:48.837Z,2.10
2023-02-21T10:56:19.695Z,1.53
2023-02-21T10:58:53.957Z,1.30
2023-02-21T11:01:30.866Z,1.10
2023-02-21T11:04:21.980Z,1.40
2023-02-21T11:06:57.118Z,1.10
2023-02-21T11:09:45.927Z,1.33
2023-02-21T11:12:17.962Z,1.30
2023-02-21T11:15:16.641Z,1.83
2023-02-21T11:17:46.553Z,2.07
2023-02-21T11:20:18.630Z,1.40
2023-02-21T11:22:49.689Z,1.67
2023-02-21T11:25:40.559Z,1.30
2023-02-21T11:28:23.626Z,1.57
2023-02-21T11:31:04.190Z,1.60
2023-02-21T11:33:33.919Z,1.23
2023-02-21T11:36:15.952Z,1.80
2023-02-21T11:38:48.026Z,1.50
2023-02-21T11:41:36.648Z,2.40
2023-02-21T11:44:26.615Z,1.60
2023-02-21T11:47:07.237Z,3.03
2023-02-21T11:49:55.700Z,1.40
2023-02-21T11:52:30.631Z,1.60
2023-02-21T11:54:59.337Z,1.40
2023-02-21T11:57:47.571Z,1.13
2023-02-21T12:01:02.497Z,1.70
2023-02-21T12:04:00.768Z,1.30
2023-02-21T12:06:40.421Z,1.23
2023-02-21T12:09:27.336Z,0.97
2023-02-21T12:12:20.137Z,1.20
2023-02-21T12:14:57.518Z,1.30
2023-02-21T12:17:41.935Z,1.27
2023-02-21T12:20:35.985Z,1.30
2023-02-21T12:23:19.424Z,1.30
2023-02-21T12:26:12.386Z,1.20
2023-02-21T12:29:04.269Z,1.30
2023-02-21T12:31:49.574Z,1.60
2023-02-21T12:34:42.334Z,1.10
2023-02-21T12:37:25.620Z,1.17
2023-02-21T12:40:21.511Z,1.20
2023-02-21T12:43:24.742Z,1.13
2023-02-21T12:46:28.751Z,1.50
2023-02-21T12:49:12.836Z,1.10
2023-02-21T12:51:48.278Z,1.30
2023-02-21T12:54:36.150Z,1.50
2023-02-21T12:57:10.825Z,1.40
2023-02-21T12:59:55.976Z,1.43
2023-02-21T13:02:52.360Z,1.43
2023-02-21T13:05:47.073Z,1.63
2023-02-21T13:08:25.416Z,2.00
2023-02-21T13:11:09.105Z,1.70
2023-02-21T13:13:37.703Z,1.83
2023-02-21T13:16:11.875Z,1.33
2023-02-21T13:19:00.420Z,1.40
2023-02-21T13:22:00.744Z,1.47
2023-02-21T13:25:16.530Z,1.30
2023-02-21T13:27:50.869Z,1.63
2023-02-21T13:30:53.120Z,1.57
2023-02-21T13:33:45.073Z,2.00
2023-02-21T13:36:33.936Z,1.00
2023-02-21T13:39:14.701Z,1.20
2023-02-21T13:41:47.677Z,1.50
2023-02-21T13:44:31.510Z,1.00
2023-02-21T13:47:08.819Z,1.43
2023-02-21T13:49:54.160Z,1.10
2023-02-21T13:52:25.200Z,1.60
2023-02-21T13:55:21.163Z,1.10
2023-02-21T13:57:58.814Z,1.20
2023-02-21T14:00:29.686Z,1.20
2023-02-21T14:03:10.364Z,1.40
2023-02-21T14:05:53.685Z,1.40
2023-02-21T14:08:38.830Z,1.80
2023-02-21T14:11:07.172Z,1.70
2023-02-21T14:13:47.351Z,1.90
2023-02-21T14:16:15.867Z,1.40
2023-02-21T14:18:57.565Z,1.20
2023-02-21T14:21:46.468Z,1.33
2023-02-21T14:24:24.108Z,1.40
2023-02-21T14:26:58.583Z,1.80
2023-02-21T14:29:43.323Z,1.60
2023-02-21T14:32:11.926Z,2.20
2023-02-21T14:34:49.322Z,1.97
2023-02-21T14:37:26.953Z,1.85
2023-02-21T14:40:11.916Z,1.90
2023-02-21T14:42:42.999Z,2.00
2023-02-21T14:45:11.307Z,2.40
2023-02-21T14:48:20.926Z,2.40
2023-02-21T14:51:10.917Z,1.70
2023-02-21T14:53:57.838Z,2.25
2023-02-21T14:57:03.131Z,2.13
2023-02-21T14:59:50.783Z,2.15
2023-02-21T15:02:42.845Z,1.63
2023-02-21T15:05:32.668Z,2.22
2023-02-21T15:08:25.312Z,2.10
2023-02-21T15:11:03.022Z,1.70
2023-02-21T15:13:36.677Z,1.17
2023-02-21T15:16:08.402Z,1.70
2023-02-21T15:18:42.192Z,1.57
2023-02-21T15:21:13.440Z,2.00
2023-02-21T15:23:47.130Z,2.93
2023-02-21T15:26:25.064Z,5.95
2023-02-21T15:29:13.574Z,3.33
2023-02-21T15:31:45.945Z,9.83
2023-02-21T15:34:22.242Z,5.03
2023-02-21T15:37:17.187Z,4.25
2023-02-21T15:39:55.390Z,5.97
2023-02-21T15:42:26.449Z,4.50
2023-02-21T15:45:11.583Z,3.30
2023-02-21T15:47:40.130Z,2.90
2023-02-21T15:50:31.917Z,2.80
2023-02-21T15:53:22.915Z,2.65
2023-02-21T15:55:53.099Z,3.00
2023-02-21T15:58:27.733Z,2.33
2023-02-21T16:01:09.158Z,3.13
2023-02-21T16:03:40.677Z,7.80
2023-02-21T16:06:30.600Z,13.98
2023-02-21T16:09:07.627Z,5.30
2023-02-21T16:11:56.109Z,2.63
2023-02-21T16:14:43.252Z,3.30
2023-02-21T16:17:14.653Z,3.67
2023-02-21T16:19:47.944Z,3.63
2023-02-21T16:22:59.677Z,2.70
2023-02-21T16:25:27.493Z,2.33
2023-02-21T16:27:58.892Z,2.07
2023-02-21T16:30:32.559Z,2.40
2023-02-21T16:33:04.383Z,1.93
2023-02-21T16:35:34.428Z,2.10
2023-02-21T16:38:03.144Z,1.60
2023-02-21T16:40:35.621Z,1.50
2023-02-21T16:43:05.837Z,2.30
2023-02-21T16:45:34.737Z,1.93
2023-02-21T16:48:09.927Z,2.50
2023-02-21T16:50:40.673Z,2.30
2023-02-21T16:53:13.438Z,2.10
2023-02-21T16:55:43.462Z,1.77
2023-02-21T16:58:27.261Z,2.40
2023-02-21T17:01:01.803Z,2.23
2023-02-21T17:03:30.422Z,2.40
2023-02-21T17:06:01.685Z,2.20
2023-02-21T17:08:30.417Z,1.73
2023-02-21T17:10:59.114Z,2.23
2023-02-21T17:13:27.596Z,1.93
2023-02-21T17:15:56.062Z,2.10
2023-02-21T17:18:25.020Z,2.50
2023-02-21T17:20:53.417Z,2.70
2023-02-21T17:23:21.806Z,3.00
2023-02-21T17:25:50.204Z,2.10
2023-02-21T17:28:18.673Z,1.83
2023-02-21T17:30:48.399Z,2.53
2023-02-21T17:33:16.858Z,2.27
2023-02-21T17:35:45.360Z,2.20
2023-02-21T17:38:13.769Z,2.33
2023-02-21T17:40:42.244Z,2.20
2023-02-21T17:43:10.735Z,2.90
2023-02-21T17:45:39.162Z,2.50
2023-02-21T17:48:07.861Z,2.20
2023-02-21T17:50:36.311Z,2.17
2023-02-21T17:53:04.757Z,2.20
2023-02-21T17:55:34.052Z,2.03
2023-02-21T17:58:02.823Z,1.97
2023-02-21T18:00:35.306Z,2.60
2023-02-21T18:03:05.105Z,2.03
2023-02-21T18:05:34.707Z,1.87
2023-02-21T18:08:03.229Z,1.77
2023-02-21T18:10:31.837Z,2.10
2023-02-21T18:13:00.401Z,1.70
2023-02-21T18:15:29.675Z,1.60
2023-02-21T18:18:06.667Z,2.20
2023-02-21T18:20:36.226Z,3.50
2023-02-21T18:23:07.183Z,2.00
2023-02-21T18:25:36.803Z,2.07
2023-02-21T18:28:06.179Z,1.50
2023-02-21T18:30:34.567Z,1.93
2023-02-21T18:33:03.101Z,2.03
2023-02-21T18:35:31.564Z,2.07
2023-02-21T18:37:59.952Z,1.23
2023-02-21T18:40:35.221Z,2.00
2023-02-21T18:43:06.606Z,1.43
2023-02-21T18:45:35.441Z,1.97
2023-02-21T18:48:04.816Z,2.13
2023-02-21T18:50:33.231Z,1.20
2023-02-21T18:53:03.015Z,1.70
2023-02-21T18:55:32.253Z,1.00
2023-02-21T18:58:00.976Z,1.27
2023-02-21T19:00:30.478Z,1.50
2023-02-21T19:02:59.075Z,1.90
2023-02-21T19:05:28.670Z,1.40
2023-02-21T19:07:57.228Z,1.50
2023-02-21T19:10:27.195Z,1.23
2023-02-21T19:12:55.584Z,1.60
2023-02-21T19:15:24.003Z,1.30
2023-02-21T19:17:52.609Z,1.60
2023-02-21T19:20:21.392Z,1.50
2023-02-21T19:22:49.877Z,1.10
2023-02-21T19:25:19.396Z,1.00
2023-02-21T19:27:47.825Z,1.00
2023-02-21T19:30:20.906Z,0.70
2023-02-21T19:32:49.463Z,0.93
2023-02-21T19:35:17.893Z,0.80
2023-02-21T19:37:46.465Z,0.60
2023-02-21T19:40:14.836Z,0.90
2023-02-21T19:42:43.183Z,0.80
2023-02-21T19:45:11.596Z,0.73
2023-02-21T19:47:40.086Z,0.87
2023-02-21T19:50:08.705Z,0.90
2023-02-21T19:52:37.246Z,0.70
2023-02-21T19:55:06.283Z,1.17
2023-02-21T19:57:34.630Z,0.90
2023-02-21T20:00:03.227Z,1.60
2023-02-21T20:02:32.847Z,1.60
2023-02-21T20:05:01.194Z,0.87
2023-02-21T20:07:29.611Z,0.97
2023-02-21T20:09:58.096Z,1.30
2023-02-21T20:12:26.442Z,1.20
2023-02-21T20:14:56.903Z,0.90
2023-02-21T20:17:25.969Z,2.70
2023-02-21T20:19:54.349Z,1.30
2023-02-21T20:22:22.786Z,1.47
2023-02-21T20:24:51.125Z,1.27
2023-02-21T20:27:19.461Z,0.93
2023-02-21T20:29:48.193Z,0.70
2023-02-21T20:32:19.179Z,0.90
2023-02-21T20:34:47.829Z,0.80
2023-02-21T20:37:17.735Z,1.03
2023-02-21T20:39:46.211Z,1.27
2023-02-21T20:42:14.567Z,1.03
2023-02-21T20:44:45.850Z,1.30
2023-02-21T20:47:15.198Z,1.40
2023-02-21T20:49:47.429Z,1.03
2023-02-21T20:52:17.106Z,1.60
2023-02-21T20:54:46.137Z,1.17
2023-02-21T20:57:14.541Z,1.60
2023-02-21T20:59:43.139Z,1.30
2023-02-21T21:02:11.822Z,1.80
2023-02-21T21:04:43.844Z,1.10
2023-02-21T21:07:20.733Z,1.23
2023-02-21T21:09:50.564Z,1.07
2023-02-21T21:12:21.314Z,1.00
2023-02-21T21:14:51.389Z,0.83
2023-02-21T21:17:21.407Z,1.10
2023-02-21T21:19:50.578Z,1.00
2023-02-21T21:22:22.056Z,0.90
2023-02-21T21:24:52.201Z,1.40
2023-02-21T21:27:22.466Z,1.10
2023-02-21T21:29:51.114Z,1.17
2023-02-21T21:32:22.672Z,1.00
2023-02-21T21:34:53.925Z,1.53
2023-02-21T21:37:25.350Z,1.40
2023-02-21T21:39:55.426Z,1.50
2023-02-21T21:42:27.169Z,0.90
2023-02-21T21:44:57.421Z,1.10
2023-02-21T21:47:32.777Z,1.03
2023-02-21T21:50:03.162Z,1.00
2023-02-21T21:52:32.070Z,1.00
2023-02-21T21:55:00.501Z,0.83
2023-02-21T21:57:29.117Z,0.80
2023-02-21T21:59:58.048Z,0.70
2023-02-21T22:02:26.455Z,1.40
2023-02-21T22:04:54.806Z,1.00
2023-02-21T22:07:23.765Z,1.10
2023-02-21T22:09:52.180Z,1.30
2023-02-21T22:12:20.673Z,1.03
2023-02-21T22:14:50.691Z,1.37
2023-02-21T22:17:19.675Z,1.07
2023-02-21T22:19:48.277Z,1.40
2023-02-21T22:22:16.875Z,1.20
2023-02-21T22:24:45.476Z,1.00
2023-02-21T22:27:13.793Z,1.40
2023-02-21T22:29:42.247Z,1.30
2023-02-21T22:32:10.932Z,1.40
2023-02-21T22:34:39.393Z,1.00
2023-02-21T22:37:07.798Z,1.10
2023-02-21T22:39:36.164Z,1.07
2023-02-21T22:42:09.621Z,1.13
2023-02-21T22:44:38.376Z,1.50
2023-02-21T22:47:06.795Z,1.30
2023-02-21T22:49:35.205Z,1.43
2023-02-21T22:52:04.880Z,1.20
2023-02-21T22:54:33.305Z,0.87
2023-02-21T22:57:05.967Z,1.00
2023-02-21T22:59:36.175Z,1.00
2023-02-21T23:02:05.007Z,0.87
2023-02-21T23:04:37.669Z,1.50
2023-02-21T23:07:06.692Z,1.63
2023-02-21T23:09:37.929Z,1.80
2023-02-21T23:12:06.817Z,1.07
2023-02-21T23:14:40.274Z,1.50
2023-02-21T23:17:08.632Z,1.47
2023-02-21T23:19:36.981Z,1.70
2023-02-21T23:22:06.563Z,1.43
2023-02-21T23:24:34.893Z,2.00
2023-02-21T23:27:03.705Z,2.40
2023-02-21T23:29:32.089Z,1.30
2023-02-21T23:32:10.298Z,1.73
2023-02-21T23:34:41.787Z,1.40
2023-02-21T23:37:12.964Z,1.73
2023-02-21T23:39:42.875Z,1.30
2023-02-21T23:42:11.677Z,1.20
2023-02-21T23:44:40.385Z,1.83
2023-02-21T23:47:08.842Z,1.17
2023-02-21T23:49:44.746Z,1.80
2023-02-21T23:52:13.177Z,2.67
2023-02-21T23:54:42.051Z,2.20
2023-02-21T23:57:10.406Z,1.43
2023-02-21T23:59:38.791Z,0.87
